Pollocksville, North Carolina
Current Conditions -  °F | °C
As of 6:54 AM on Saturday 25 Oct 2014 (Local Time) from KEWN Reporting Station
Haze Haze  
Wind Chill: 46°   Ceiling: Unl
Heat Index: 46°   Visibility: 6mi
Dew Point: 43°   Wind: 0mph
Humidity: 89%   Direction: NA
Pressure: 30"   Gusts: NA
Location:  35.01°N, 77.22°W
Report Text: KEWN 251054Z 00000KT 6SM BR CLR 08/06 A3000 RMK AO2 SLP157 T00780061
Loading
Personal Weather Stations






























Interactive Weather Map
Tropical Storm Tracking
New forecast layout! Learn more

10-Day Weather Forecast

Advertisements
Track Severe Weather on mobile